createdAt,value
2017-08-04T00:00:22.293Z,0
2017-08-04T00:01:02.835Z,0
2017-08-04T00:01:43.378Z,0
2017-08-04T00:02:23.912Z,0
2017-08-04T00:03:04.440Z,0
2017-08-04T00:03:44.983Z,0
2017-08-04T00:04:25.598Z,0
2017-08-04T00:05:06.121Z,0
2017-08-04T00:05:46.651Z,0
2017-08-04T00:06:27.187Z,0
2017-08-04T00:07:07.734Z,0
2017-08-04T00:07:48.257Z,0
2017-08-04T00:08:28.800Z,0
2017-08-04T00:09:09.338Z,0
2017-08-04T00:09:49.863Z,0
2017-08-04T00:10:30.400Z,0
2017-08-04T00:11:10.936Z,0
2017-08-04T00:11:51.473Z,0
2017-08-04T00:12:32.006Z,0
2017-08-04T00:13:12.545Z,0
2017-08-04T00:13:53.081Z,0
2017-08-04T00:14:33.618Z,0
2017-08-04T00:15:14.158Z,0
2017-08-04T00:15:54.694Z,0
2017-08-04T00:16:35.229Z,0
2017-08-04T00:17:15.775Z,0
2017-08-04T00:17:56.311Z,0
2017-08-04T00:18:36.850Z,0
2017-08-04T00:19:17.395Z,0
2017-08-04T00:19:57.933Z,0
2017-08-04T00:20:38.469Z,0
2017-08-04T00:21:19.008Z,0
2017-08-04T00:21:59.545Z,0
2017-08-04T00:22:40.088Z,0
2017-08-04T00:23:20.623Z,0
2017-08-04T00:24:01.169Z,0
2017-08-04T00:24:41.706Z,0
2017-08-04T00:25:22.245Z,0
2017-08-04T00:26:02.786Z,0
2017-08-04T00:26:43.326Z,0
2017-08-04T00:27:23.866Z,0
2017-08-04T00:28:04.406Z,0
2017-08-04T00:28:44.953Z,0
2017-08-04T00:29:25.494Z,0
2017-08-04T00:30:06.030Z,0
2017-08-04T00:30:46.570Z,0
2017-08-04T00:31:27.112Z,0
2017-08-04T00:32:07.640Z,0
2017-08-04T00:32:48.173Z,0
2017-08-04T00:33:28.714Z,0
2017-08-04T00:34:09.248Z,0
2017-08-04T00:34:49.805Z,0
2017-08-04T00:35:30.368Z,0
2017-08-04T00:36:10.889Z,0
2017-08-04T00:36:51.429Z,0
2017-08-04T00:37:31.968Z,0
2017-08-04T00:38:12.509Z,0
2017-08-04T00:38:53.052Z,0
2017-08-04T00:39:33.598Z,0
2017-08-04T00:40:14.145Z,0
2017-08-04T00:40:54.700Z,0
2017-08-04T00:41:35.218Z,0
2017-08-04T00:42:15.751Z,0
2017-08-04T00:42:56.272Z,0
2017-08-04T00:43:36.793Z,0
2017-08-04T00:44:17.332Z,0
2017-08-04T00:44:57.854Z,0
2017-08-04T00:45:38.393Z,0
2017-08-04T00:46:18.946Z,0
2017-08-04T00:48:18.082Z,0
2017-08-04T00:48:58.622Z,0
2017-08-04T00:49:39.163Z,0
2017-08-04T00:50:19.705Z,0
2017-08-04T00:51:00.246Z,0
2017-08-04T00:51:40.777Z,0
2017-08-04T00:52:21.310Z,0
2017-08-04T00:53:01.833Z,0
2017-08-04T00:53:42.366Z,0
2017-08-04T00:54:22.900Z,0
2017-08-04T00:55:03.434Z,0
2017-08-04T00:55:43.947Z,0
2017-08-04T00:56:24.481Z,0
2017-08-04T00:57:05.018Z,0
2017-08-04T00:57:45.551Z,0
2017-08-04T00:58:26.092Z,0
2017-08-04T00:59:06.618Z,0
2017-08-04T00:59:47.137Z,0
2017-08-04T01:00:27.665Z,0
2017-08-04T01:01:08.204Z,0
2017-08-04T01:01:48.738Z,0
2017-08-04T01:02:29.280Z,0
2017-08-04T01:03:09.813Z,0
2017-08-04T01:03:50.358Z,0
2017-08-04T01:04:30.897Z,0
2017-08-04T01:05:11.432Z,0
2017-08-04T01:05:51.958Z,0
2017-08-04T01:06:32.499Z,0
2017-08-04T01:07:13.035Z,0
2017-08-04T01:07:53.563Z,0
2017-08-04T01:08:34.099Z,0
2017-08-04T01:09:14.635Z,0
2017-08-04T01:09:55.216Z,0
2017-08-04T01:10:35.749Z,0
2017-08-04T01:11:16.284Z,0
2017-08-04T01:11:56.821Z,0
2017-08-04T01:12:37.361Z,0
2017-08-04T01:13:17.898Z,0
2017-08-04T01:13:58.431Z,0
2017-08-04T01:14:38.961Z,0
2017-08-04T01:15:19.499Z,0
2017-08-04T01:16:00.034Z,0
2017-08-04T01:16:40.566Z,0
2017-08-04T01:17:21.115Z,0
2017-08-04T01:18:01.654Z,0
2017-08-04T01:18:42.195Z,0
2017-08-04T01:19:22.734Z,0
2017-08-04T01:20:03.265Z,0
2017-08-04T01:20:43.804Z,0
2017-08-04T01:21:24.342Z,0
2017-08-04T01:22:04.882Z,0
2017-08-04T01:22:45.419Z,0
2017-08-04T01:23:25.954Z,0
2017-08-04T01:24:06.494Z,0
2017-08-04T01:24:47.049Z,0
2017-08-04T01:25:27.558Z,0
2017-08-04T01:26:08.088Z,0
2017-08-04T01:26:48.625Z,0
2017-08-04T01:27:29.165Z,0
2017-08-04T01:28:09.705Z,0
2017-08-04T01:28:50.236Z,0
2017-08-04T01:29:30.771Z,0
2017-08-04T01:30:11.297Z,0
2017-08-04T01:30:51.838Z,0
2017-08-04T01:31:32.358Z,0
2017-08-04T01:32:12.905Z,0
2017-08-04T01:32:53.440Z,0
2017-08-04T01:33:33.975Z,0
2017-08-04T01:34:14.515Z,0
2017-08-04T01:34:55.052Z,0
2017-08-04T01:35:35.593Z,0
2017-08-04T01:36:16.131Z,0
2017-08-04T01:36:56.665Z,0
2017-08-04T01:37:37.209Z,0
2017-08-04T01:38:17.744Z,0
2017-08-04T01:38:58.280Z,0
2017-08-04T01:39:38.817Z,0
2017-08-04T01:40:19.354Z,0
2017-08-04T01:40:59.898Z,0
2017-08-04T01:41:40.436Z,0
2017-08-04T01:42:20.976Z,0
2017-08-04T01:43:01.508Z,0
2017-08-04T01:43:42.034Z,0
2017-08-04T01:44:22.564Z,0
2017-08-04T01:45:03.094Z,0
2017-08-04T01:45:43.637Z,0
2017-08-04T01:46:24.170Z,0
2017-08-04T01:47:04.738Z,0
2017-08-04T01:47:45.271Z,0
2017-08-04T01:48:25.810Z,0
2017-08-04T01:49:06.337Z,0
2017-08-04T01:49:46.878Z,0
2017-08-04T01:50:27.413Z,0
2017-08-04T01:51:10.944Z,0
2017-08-04T01:51:51.484Z,0
2017-08-04T01:52:32.027Z,0
2017-08-04T01:53:12.564Z,0
2017-08-04T01:53:53.101Z,0
2017-08-04T01:54:33.638Z,0
2017-08-04T01:55:14.178Z,0
2017-08-04T01:55:54.714Z,0
2017-08-04T01:56:35.248Z,0
2017-08-04T01:57:15.786Z,0
2017-08-04T01:57:56.333Z,0
2017-08-04T01:58:36.873Z,0
2017-08-04T01:59:17.404Z,0
2017-08-04T01:59:57.953Z,0
2017-08-04T02:00:38.496Z,0
2017-08-04T02:01:19.039Z,0
2017-08-04T02:01:59.566Z,0
2017-08-04T02:02:40.098Z,0
2017-08-04T02:03:20.642Z,0
2017-08-04T02:04:01.178Z,0
2017-08-04T02:04:41.708Z,0
2017-08-04T02:05:22.243Z,0
2017-08-04T02:06:02.791Z,0
2017-08-04T02:06:43.337Z,0
2017-08-04T02:07:23.871Z,0
2017-08-04T02:08:04.412Z,0
2017-08-04T02:08:44.945Z,0
2017-08-04T02:09:25.485Z,0
2017-08-04T02:10:06.010Z,0
2017-08-04T02:10:46.547Z,0
2017-08-04T02:11:27.078Z,0
2017-08-04T02:12:07.606Z,0
2017-08-04T02:12:48.145Z,0
2017-08-04T02:13:28.691Z,0
2017-08-04T02:14:09.223Z,0
2017-08-04T02:14:49.753Z,0
2017-08-04T02:15:30.293Z,0
2017-08-04T02:16:10.831Z,0
2017-08-04T02:16:51.361Z,0
2017-08-04T02:17:31.898Z,0
2017-08-04T02:18:12.439Z,0
2017-08-04T02:18:52.963Z,0
2017-08-04T02:19:33.502Z,0
2017-08-04T02:20:14.040Z,0
2017-08-04T02:20:54.555Z,0
2017-08-04T02:21:35.083Z,0
2017-08-04T02:22:15.613Z,0
2017-08-04T02:22:56.155Z,0
2017-08-04T02:23:36.679Z,0
2017-08-04T02:24:17.217Z,0
2017-08-04T02:24:57.757Z,0
2017-08-04T02:25:38.289Z,0
2017-08-04T02:26:18.832Z,0
2017-08-04T02:26:59.358Z,0
2017-08-04T02:27:39.878Z,0
2017-08-04T02:28:20.413Z,0
2017-08-04T02:29:00.954Z,0
2017-08-04T02:29:41.465Z,0
2017-08-04T02:30:22.002Z,0
2017-08-04T02:31:02.527Z,0
2017-08-04T02:31:43.065Z,0
2017-08-04T02:32:23.603Z,0
2017-08-04T02:33:04.141Z,0
2017-08-04T02:33:44.676Z,0
2017-08-04T02:34:25.207Z,0
2017-08-04T02:35:05.748Z,0
2017-08-04T02:35:46.295Z,0
2017-08-04T02:36:26.812Z,0
2017-08-04T02:37:07.342Z,0
2017-08-04T02:37:47.879Z,0
2017-08-04T02:38:28.423Z,0
2017-08-04T02:39:08.959Z,0
2017-08-04T02:39:49.488Z,0
2017-08-04T02:40:30.022Z,0
2017-08-04T02:41:10.572Z,0
2017-08-04T02:41:51.110Z,0
2017-08-04T02:42:31.640Z,0
2017-08-04T02:43:12.185Z,0
2017-08-04T02:43:52.717Z,0
2017-08-04T02:44:33.248Z,0
2017-08-04T02:45:13.775Z,0
2017-08-04T02:45:54.297Z,0
2017-08-04T02:46:34.836Z,0
2017-08-04T02:47:15.369Z,0
2017-08-04T02:47:55.919Z,0
2017-08-04T02:48:36.449Z,0
2017-08-04T02:49:16.983Z,0
2017-08-04T02:49:57.522Z,0
2017-08-04T02:50:38.054Z,0
2017-08-04T02:51:18.577Z,0
2017-08-04T02:51:59.121Z,0
2017-08-04T02:52:39.640Z,0
2017-08-04T02:53:20.175Z,0
2017-08-04T02:54:00.712Z,0
2017-08-04T02:54:41.256Z,0
2017-08-04T02:55:21.794Z,0
2017-08-04T02:56:02.317Z,0
2017-08-04T02:56:42.850Z,0
2017-08-04T02:57:23.391Z,0
2017-08-04T02:58:03.933Z,0
2017-08-04T02:58:44.464Z,0
2017-08-04T02:59:24.997Z,0
2017-08-04T03:00:05.528Z,0
2017-08-04T03:00:46.067Z,0
2017-08-04T03:01:26.603Z,0
2017-08-04T03:02:07.147Z,0
2017-08-04T03:02:47.682Z,0
2017-08-04T03:03:28.221Z,0
2017-08-04T03:04:08.762Z,0
2017-08-04T03:04:49.302Z,0
2017-08-04T03:05:29.836Z,0
2017-08-04T03:06:10.388Z,0
2017-08-04T03:06:50.924Z,0
2017-08-04T03:07:31.463Z,0
2017-08-04T03:08:12.004Z,0
2017-08-04T03:08:52.539Z,0
2017-08-04T03:09:33.077Z,0
2017-08-04T03:10:13.622Z,0
2017-08-04T03:10:54.195Z,0
2017-08-04T03:11:34.685Z,0
2017-08-04T03:12:15.217Z,0
2017-08-04T03:12:55.756Z,0
2017-08-04T03:13:36.286Z,0
2017-08-04T03:14:16.830Z,0
2017-08-04T03:14:57.371Z,0
2017-08-04T03:15:37.907Z,0
2017-08-04T03:16:18.443Z,0
2017-08-04T03:16:58.972Z,0
2017-08-04T03:17:39.508Z,0
2017-08-04T03:18:20.043Z,0
2017-08-04T03:19:00.579Z,0
2017-08-04T03:19:41.099Z,0
2017-08-04T03:20:21.624Z,0
2017-08-04T03:21:02.153Z,0
2017-08-04T03:21:42.699Z,0
2017-08-04T03:22:23.239Z,0
2017-08-04T03:23:03.779Z,0
2017-08-04T03:23:44.303Z,0
2017-08-04T03:24:24.835Z,0
2017-08-04T03:25:05.369Z,0
2017-08-04T03:25:45.897Z,0
2017-08-04T03:26:26.432Z,0
2017-08-04T03:27:06.971Z,0
2017-08-04T03:27:47.505Z,0
2017-08-04T03:28:28.053Z,0
2017-08-04T03:29:08.576Z,0
2017-08-04T03:29:49.123Z,0
2017-08-04T03:30:29.660Z,0
2017-08-04T03:31:10.200Z,0
2017-08-04T03:31:50.737Z,0
2017-08-04T03:32:31.275Z,0
2017-08-04T03:33:11.810Z,0
2017-08-04T03:33:52.355Z,0
2017-08-04T03:34:32.881Z,4
2017-08-04T03:35:13.411Z,4
2017-08-04T03:35:53.937Z,4
2017-08-04T03:36:34.495Z,4
2017-08-04T03:37:15.041Z,0
2017-08-04T03:37:55.580Z,0
2017-08-04T03:38:36.136Z,4
2017-08-04T03:39:16.658Z,4
2017-08-04T03:39:57.187Z,4
2017-08-04T03:40:37.729Z,8
2017-08-04T03:41:18.268Z,4
2017-08-04T03:41:58.795Z,4
2017-08-04T03:42:39.334Z,4
2017-08-04T03:43:19.883Z,4
2017-08-04T03:44:00.395Z,4
2017-08-04T03:44:40.932Z,4
2017-08-04T03:45:21.475Z,4
2017-08-04T03:46:02.022Z,8
2017-08-04T03:46:42.557Z,8
2017-08-04T03:47:23.088Z,12
2017-08-04T03:48:03.619Z,8
2017-08-04T03:48:44.149Z,12
2017-08-04T03:49:24.695Z,12
2017-08-04T03:50:05.233Z,12
2017-08-04T03:50:45.768Z,12
2017-08-04T03:51:26.313Z,12
2017-08-04T03:52:06.854Z,16
2017-08-04T03:52:47.384Z,20
2017-08-04T03:53:27.925Z,24
2017-08-04T03:54:08.454Z,24
2017-08-04T03:54:48.988Z,24
2017-08-04T03:55:29.530Z,24
2017-08-04T03:56:10.112Z,28
2017-08-04T03:56:50.634Z,36
2017-08-04T03:57:31.174Z,36
2017-08-04T03:58:11.711Z,44
2017-08-04T03:58:52.240Z,48
2017-08-04T03:59:32.779Z,48
2017-08-04T04:00:13.308Z,52
2017-08-04T04:00:53.846Z,60
2017-08-04T04:01:34.384Z,64
2017-08-04T04:02:14.904Z,64
2017-08-04T04:02:55.443Z,72
2017-08-04T04:03:35.974Z,68
2017-08-04T04:04:16.508Z,76
2017-08-04T04:04:57.047Z,76
2017-08-04T04:05:37.582Z,80
2017-08-04T04:06:18.103Z,84
2017-08-04T04:06:58.633Z,88
2017-08-04T04:07:39.171Z,92
2017-08-04T04:08:19.702Z,92
2017-08-04T04:09:00.241Z,96
2017-08-04T04:09:40.776Z,100
2017-08-04T04:10:21.322Z,108
2017-08-04T04:11:01.857Z,116
2017-08-04T04:11:42.395Z,120
2017-08-04T04:12:22.946Z,128
2017-08-04T04:13:03.470Z,128
2017-08-04T04:13:44.014Z,132
2017-08-04T04:14:24.532Z,132
2017-08-04T04:15:05.070Z,132
2017-08-04T04:15:45.612Z,140
2017-08-04T04:16:26.156Z,152
2017-08-04T04:17:06.691Z,160
2017-08-04T04:17:47.235Z,168
2017-08-04T04:18:27.774Z,164
2017-08-04T04:19:08.310Z,164
2017-08-04T04:19:48.850Z,172
2017-08-04T04:20:29.394Z,176
2017-08-04T04:21:09.935Z,188
2017-08-04T04:21:50.468Z,196
2017-08-04T04:22:31.017Z,196
2017-08-04T04:23:11.551Z,188
2017-08-04T04:23:52.082Z,192
2017-08-04T04:24:32.617Z,188
2017-08-04T04:25:13.154Z,188
2017-08-04T04:25:53.697Z,192
2017-08-04T04:26:34.226Z,192
2017-08-04T04:27:14.756Z,196
2017-08-04T04:27:55.293Z,196
2017-08-04T04:28:35.831Z,200
2017-08-04T04:29:16.368Z,204
2017-08-04T04:29:56.908Z,212
2017-08-04T04:30:37.438Z,224
2017-08-04T04:31:17.976Z,236
2017-08-04T04:31:58.506Z,256
2017-08-04T04:32:39.048Z,292
2017-08-04T04:33:19.630Z,324
2017-08-04T04:34:00.157Z,328
2017-08-04T04:34:40.739Z,336
2017-08-04T04:35:21.281Z,348
2017-08-04T04:36:01.849Z,372
2017-08-04T04:36:42.339Z,396
2017-08-04T04:37:22.878Z,424
2017-08-04T04:38:03.419Z,464
2017-08-04T04:38:43.958Z,468
2017-08-04T04:39:24.494Z,460
2017-08-04T04:40:05.029Z,464
2017-08-04T04:40:45.564Z,508
2017-08-04T04:41:26.103Z,568
2017-08-04T04:42:06.638Z,628
2017-08-04T04:42:47.181Z,640
2017-08-04T04:43:27.719Z,600
2017-08-04T04:44:08.259Z,560
2017-08-04T04:44:48.789Z,540
2017-08-04T04:45:29.330Z,536
2017-08-04T04:46:09.847Z,544
2017-08-04T04:46:50.387Z,564
2017-08-04T04:47:30.910Z,576
2017-08-04T04:48:11.452Z,528
2017-08-04T04:48:51.991Z,476
2017-08-04T04:49:32.524Z,448
2017-08-04T04:50:13.059Z,460
2017-08-04T04:50:53.595Z,480
2017-08-04T04:51:34.131Z,544
2017-08-04T04:52:14.668Z,636
2017-08-04T04:52:55.195Z,700
2017-08-04T04:53:35.729Z,756
2017-08-04T04:54:16.252Z,740
2017-08-04T04:54:56.787Z,656
2017-08-04T04:55:37.331Z,532
2017-08-04T04:56:17.874Z,456
2017-08-04T04:56:58.409Z,424
2017-08-04T04:57:38.953Z,408
2017-08-04T04:58:19.487Z,408
2017-08-04T04:59:00.053Z,400
2017-08-04T04:59:40.553Z,412
2017-08-04T05:00:21.086Z,432
2017-08-04T05:01:01.627Z,456
2017-08-04T05:01:42.164Z,480
2017-08-04T05:02:22.703Z,464
2017-08-04T05:03:03.249Z,472
2017-08-04T05:03:43.783Z,528
2017-08-04T05:04:24.324Z,628
2017-08-04T05:05:04.861Z,720
2017-08-04T05:05:45.396Z,776
2017-08-04T05:06:25.934Z,820
2017-08-04T05:07:06.458Z,844
2017-08-04T05:07:47.001Z,836
2017-08-04T05:08:27.528Z,792
2017-08-04T05:09:08.068Z,732
2017-08-04T05:09:48.604Z,728
2017-08-04T05:10:29.137Z,800
2017-08-04T05:11:09.695Z,896
2017-08-04T05:11:50.237Z,944
2017-08-04T05:12:30.776Z,932
2017-08-04T05:13:11.318Z,904
2017-08-04T05:13:51.862Z,904
2017-08-04T05:14:32.398Z,900
2017-08-04T05:15:12.942Z,904
2017-08-04T05:15:53.472Z,920
2017-08-04T05:16:34.011Z,936
2017-08-04T05:17:14.549Z,924
2017-08-04T05:17:55.088Z,924
2017-08-04T05:18:35.629Z,936
2017-08-04T05:19:16.162Z,972
2017-08-04T05:19:56.690Z,1020
2017-08-04T05:20:37.227Z,1044
2017-08-04T05:21:17.761Z,1080
2017-08-04T05:21:58.308Z,1120
2017-08-04T05:22:38.827Z,1132
2017-08-04T05:23:19.372Z,1088
2017-08-04T05:23:59.903Z,976
2017-08-04T05:24:40.452Z,944
2017-08-04T05:25:20.972Z,996
2017-08-04T05:26:01.513Z,1008
2017-08-04T05:26:42.058Z,1036
2017-08-04T05:27:22.600Z,1104
2017-08-04T05:28:03.140Z,1196
2017-08-04T05:28:43.677Z,1332
2017-08-04T05:29:24.229Z,1404
2017-08-04T05:30:04.758Z,1492
2017-08-04T05:30:45.306Z,1592
2017-08-04T05:31:25.838Z,1668
2017-08-04T05:32:06.424Z,1752
2017-08-04T05:32:46.963Z,1760
2017-08-04T05:33:27.501Z,1680
2017-08-04T05:34:08.040Z,1780
2017-08-04T05:34:48.579Z,1956
2017-08-04T05:35:29.117Z,1948
2017-08-04T05:36:09.655Z,1908
2017-08-04T05:36:50.195Z,1996
2017-08-04T05:37:30.735Z,2044
2017-08-04T05:38:11.275Z,2084
2017-08-04T05:38:51.817Z,2136
2017-08-04T05:39:32.345Z,2192
2017-08-04T05:40:12.882Z,2176
2017-08-04T05:40:53.422Z,2080
2017-08-04T05:41:33.963Z,1992
2017-08-04T05:42:14.503Z,2160
2017-08-04T05:42:55.037Z,2356
2017-08-04T05:43:35.572Z,2520
2017-08-04T05:44:16.103Z,2576
2017-08-04T05:44:56.635Z,2540
2017-08-04T05:45:37.176Z,2424
2017-08-04T05:46:17.720Z,2344
2017-08-04T05:46:58.250Z,2400
2017-08-04T05:47:38.789Z,2480
2017-08-04T05:48:19.327Z,2528
2017-08-04T05:48:59.868Z,2428
2017-08-04T05:49:40.398Z,2288
2017-08-04T05:50:20.937Z,2092
2017-08-04T05:51:01.472Z,1944
2017-08-04T05:51:42.010Z,1792
2017-08-04T05:52:22.549Z,1592
2017-08-04T05:53:03.090Z,1680
2017-08-04T05:53:43.629Z,1812
2017-08-04T05:54:24.165Z,2032
2017-08-04T05:55:04.706Z,1940
2017-08-04T05:55:45.248Z,1840
2017-08-04T05:56:25.788Z,1840
2017-08-04T05:57:06.327Z,1968
2017-08-04T05:57:46.867Z,1928
2017-08-04T05:58:27.406Z,1852
2017-08-04T05:59:07.949Z,1860
2017-08-04T05:59:48.489Z,1988
2017-08-04T06:00:29.021Z,2140
2017-08-04T06:01:09.606Z,2152
2017-08-04T06:01:50.141Z,2252
2017-08-04T06:02:30.681Z,2364
2017-08-04T06:03:11.215Z,2492
2017-08-04T06:03:51.752Z,2736
2017-08-04T06:04:32.309Z,2872
2017-08-04T06:05:12.830Z,2860
2017-08-04T06:05:53.369Z,2972
2017-08-04T06:06:33.913Z,2988
2017-08-04T06:07:14.464Z,2968
2017-08-04T06:07:54.985Z,3020
2017-08-04T06:08:35.522Z,3012
2017-08-04T06:09:16.060Z,3020
2017-08-04T06:09:56.601Z,3012
2017-08-04T06:10:37.142Z,3032
2017-08-04T06:11:17.681Z,3024
2017-08-04T06:11:58.205Z,3020
2017-08-04T06:12:38.750Z,2988
2017-08-04T06:13:19.284Z,2916
2017-08-04T06:13:59.818Z,2820
2017-08-04T06:14:40.350Z,2676
2017-08-04T06:15:20.890Z,2656
2017-08-04T06:16:01.427Z,2776
2017-08-04T06:16:41.972Z,3012
2017-08-04T06:17:22.502Z,3192
2017-08-04T06:18:03.029Z,3260
2017-08-04T06:18:43.566Z,3248
2017-08-04T06:19:24.109Z,3352
2017-08-04T06:20:04.653Z,3464
2017-08-04T06:20:45.196Z,3544
2017-08-04T06:21:25.790Z,3628
2017-08-04T06:22:06.326Z,3632
2017-08-04T06:22:46.856Z,3712
2017-08-04T06:23:27.395Z,3768
2017-08-04T06:24:07.940Z,3788
2017-08-04T06:24:48.468Z,3872
2017-08-04T06:25:29.009Z,3996
2017-08-04T06:26:09.549Z,4024
2017-08-04T06:26:50.071Z,4052
2017-08-04T06:27:30.616Z,4104
2017-08-04T06:28:11.156Z,4144
2017-08-04T06:28:51.695Z,4212
2017-08-04T06:29:32.214Z,4260
2017-08-04T06:30:12.749Z,4296
2017-08-04T06:30:53.291Z,4340
2017-08-04T06:31:33.832Z,4300
2017-08-04T06:32:14.373Z,4316
2017-08-04T06:32:54.907Z,4364
2017-08-04T06:33:35.451Z,4424
2017-08-04T06:34:15.988Z,4524
2017-08-04T06:34:56.521Z,4624
2017-08-04T06:35:37.072Z,4704
2017-08-04T06:36:17.604Z,4756
2017-08-04T06:36:58.134Z,4844
2017-08-04T06:37:38.677Z,4872
2017-08-04T06:38:19.219Z,4912
2017-08-04T06:38:59.756Z,4984
2017-08-04T06:39:40.283Z,5004
2017-08-04T06:40:20.814Z,4972
2017-08-04T06:41:01.353Z,4816
2017-08-04T06:41:41.890Z,4664
2017-08-04T06:42:22.433Z,4504
2017-08-04T06:43:02.971Z,4424
2017-08-04T06:43:43.503Z,4584
2017-08-04T06:44:24.046Z,4696
2017-08-04T06:45:04.577Z,4724
2017-08-04T06:45:45.099Z,4736
2017-08-04T06:46:25.633Z,4932
2017-08-04T06:47:06.170Z,5248
2017-08-04T06:47:46.710Z,5324
2017-08-04T06:48:27.290Z,4648
2017-08-04T06:49:07.829Z,3716
2017-08-04T06:49:48.370Z,3464
2017-08-04T06:50:28.914Z,3288
2017-08-04T06:51:09.450Z,3080
2017-08-04T06:51:49.983Z,3108
2017-08-04T06:52:30.506Z,2972
2017-08-04T06:53:11.039Z,3108
2017-08-04T06:53:51.590Z,3104
2017-08-04T06:54:32.107Z,3244
2017-08-04T06:55:12.655Z,3136
2017-08-04T06:55:53.187Z,3000
2017-08-04T06:56:33.728Z,2852
2017-08-04T06:57:14.263Z,2632
2017-08-04T06:57:54.808Z,2572
2017-08-04T06:58:35.353Z,2716
2017-08-04T06:59:15.897Z,2784
2017-08-04T06:59:56.432Z,2388
2017-08-04T07:00:36.968Z,1900
2017-08-04T07:01:17.496Z,1832
2017-08-04T07:01:58.026Z,1860
2017-08-04T07:02:38.571Z,1668
2017-08-04T07:03:19.111Z,1680
2017-08-04T07:03:59.650Z,1672
2017-08-04T07:04:40.200Z,1576
2017-08-04T07:05:20.739Z,1456
2017-08-04T07:06:01.358Z,1380
2017-08-04T07:06:41.889Z,1332
2017-08-04T07:07:22.426Z,1404
2017-08-04T07:08:02.967Z,1384
2017-08-04T07:08:43.506Z,1552
2017-08-04T07:09:24.048Z,1852
2017-08-04T07:10:04.583Z,2012
2017-08-04T07:10:45.122Z,2008
2017-08-04T07:11:25.654Z,1988
2017-08-04T07:12:06.191Z,1944
2017-08-04T07:12:46.731Z,2004
2017-08-04T07:13:27.271Z,1932
2017-08-04T07:14:07.811Z,1804
2017-08-04T07:14:48.347Z,1776
2017-08-04T07:15:28.925Z,1820
2017-08-04T07:16:09.463Z,1840
2017-08-04T07:16:49.992Z,1700
2017-08-04T07:17:30.531Z,1512
2017-08-04T07:18:11.062Z,1540
2017-08-04T07:18:51.612Z,1572
2017-08-04T07:19:32.152Z,1752
2017-08-04T07:20:12.695Z,2292
2017-08-04T07:20:53.239Z,2520
2017-08-04T07:21:33.780Z,2744
2017-08-04T07:22:14.320Z,3032
2017-08-04T07:22:54.855Z,3160
2017-08-04T07:23:35.400Z,2968
2017-08-04T07:24:15.930Z,2660
2017-08-04T07:24:56.472Z,2436
2017-08-04T07:25:37.015Z,2168
2017-08-04T07:26:17.553Z,2080
2017-08-04T07:26:58.094Z,2316
2017-08-04T07:27:38.632Z,2476
2017-08-04T07:28:19.172Z,2496
2017-08-04T07:28:59.725Z,2468
2017-08-04T07:29:40.253Z,2860
2017-08-04T07:30:20.781Z,3440
2017-08-04T07:31:01.321Z,4244
2017-08-04T07:31:41.855Z,4760
2017-08-04T07:32:22.400Z,4824
2017-08-04T07:33:02.939Z,4476
2017-08-04T07:33:43.481Z,4028
2017-08-04T07:34:24.021Z,3820
2017-08-04T07:35:04.560Z,3872
2017-08-04T07:35:45.135Z,3776
2017-08-04T07:36:25.675Z,3612
2017-08-04T07:37:06.210Z,3668
2017-08-04T07:37:46.751Z,3756
2017-08-04T07:38:27.289Z,3508
2017-08-04T07:39:07.829Z,3200
2017-08-04T07:39:48.381Z,2928
2017-08-04T07:40:28.909Z,2624
2017-08-04T07:41:09.481Z,2468
2017-08-04T07:41:50.017Z,2400
2017-08-04T07:42:30.560Z,2464
2017-08-04T07:43:11.104Z,2564
2017-08-04T07:43:51.641Z,2644
2017-08-04T07:44:32.183Z,2792
2017-08-04T07:45:12.715Z,2924
2017-08-04T07:45:53.266Z,3172
2017-08-04T07:46:33.799Z,3704
2017-08-04T07:47:14.338Z,4016
2017-08-04T07:47:54.866Z,3900
2017-08-04T07:48:35.395Z,4016
2017-08-04T07:49:15.936Z,4244
2017-08-04T07:49:56.465Z,4660
2017-08-04T07:50:37.009Z,4904
2017-08-04T07:51:17.545Z,5016
2017-08-04T07:51:58.093Z,5072
2017-08-04T07:52:38.630Z,5188
2017-08-04T07:53:19.160Z,5432
2017-08-04T07:53:59.703Z,5596
2017-08-04T07:54:40.250Z,5472
2017-08-04T07:55:20.790Z,5404
2017-08-04T07:56:01.339Z,5804
2017-08-04T07:56:41.875Z,5924
2017-08-04T07:57:22.418Z,5624
2017-08-04T07:58:02.962Z,5296
2017-08-04T07:58:43.503Z,5136
2017-08-04T07:59:24.037Z,4984
2017-08-04T08:00:04.578Z,4812
2017-08-04T08:00:45.121Z,4444
2017-08-04T08:01:25.667Z,4072
2017-08-04T08:02:06.207Z,3736
2017-08-04T08:02:46.758Z,3616
2017-08-04T08:03:27.301Z,3496
2017-08-04T08:04:07.848Z,3372
2017-08-04T08:04:48.388Z,3288
2017-08-04T08:05:28.922Z,3260
2017-08-04T08:06:09.457Z,3168
2017-08-04T08:06:49.986Z,3108
2017-08-04T08:07:30.520Z,3124
2017-08-04T08:08:11.042Z,3196
2017-08-04T08:08:51.565Z,3232
2017-08-04T08:09:32.132Z,3220
2017-08-04T08:10:12.681Z,3404
2017-08-04T08:10:53.229Z,3836
2017-08-04T08:11:33.768Z,4020
2017-08-04T08:12:14.298Z,4040
2017-08-04T08:12:54.842Z,4168
2017-08-04T08:13:35.382Z,4496
2017-08-04T08:14:15.924Z,4740
2017-08-04T08:14:56.462Z,5264
2017-08-04T08:15:36.999Z,5904
2017-08-04T08:16:17.537Z,6768
2017-08-04T08:16:58.067Z,7460
2017-08-04T08:17:38.607Z,7992
2017-08-04T08:18:19.145Z,8132
2017-08-04T08:18:59.678Z,7644
2017-08-04T08:19:40.218Z,6844
2017-08-04T08:20:20.759Z,5680
2017-08-04T08:21:01.306Z,5924
2017-08-04T08:21:41.844Z,6396
2017-08-04T08:22:22.383Z,6820
2017-08-04T08:23:02.927Z,7240
2017-08-04T08:23:43.461Z,7936
2017-08-04T08:24:24.002Z,8496
2017-08-04T08:25:04.523Z,8852
2017-08-04T08:25:45.044Z,9488
2017-08-04T08:26:25.594Z,9524
2017-08-04T08:27:06.129Z,9484
2017-08-04T08:27:46.648Z,9676
2017-08-04T08:28:27.188Z,12028
2017-08-04T08:29:07.733Z,10348
2017-08-04T08:29:48.365Z,9972
2017-08-04T08:30:28.900Z,9340
2017-08-04T08:31:09.450Z,8248
2017-08-04T08:31:49.960Z,8160
2017-08-04T08:32:30.498Z,7740
2017-08-04T08:33:11.035Z,7272
2017-08-04T08:33:51.566Z,7292
2017-08-04T08:34:32.099Z,6936
2017-08-04T08:35:12.628Z,8220
2017-08-04T08:35:53.161Z,6420
2017-08-04T08:36:33.700Z,6524
2017-08-04T08:37:14.244Z,6560
2017-08-04T08:37:54.778Z,6288
2017-08-04T08:38:35.315Z,5812
2017-08-04T08:39:15.857Z,5620
2017-08-04T08:39:56.392Z,5456
2017-08-04T08:40:36.936Z,5400
2017-08-04T08:41:17.480Z,5456
2017-08-04T08:41:58.007Z,6072
2017-08-04T08:42:38.543Z,7600
2017-08-04T08:43:19.086Z,8512
2017-08-04T08:43:59.634Z,9384
2017-08-04T08:44:40.188Z,8844
2017-08-04T08:45:20.725Z,6568
2017-08-04T08:46:01.254Z,5844
2017-08-04T08:46:41.797Z,5808
2017-08-04T08:47:22.314Z,6524
2017-08-04T08:48:02.852Z,6568
2017-08-04T08:48:43.380Z,6496
2017-08-04T08:49:23.920Z,7068
2017-08-04T08:50:04.464Z,8624
2017-08-04T08:50:45.011Z,7856
2017-08-04T08:51:25.533Z,27008
2017-08-04T08:52:06.071Z,6196
2017-08-04T08:52:46.612Z,6516
2017-08-04T08:53:27.136Z,6460
2017-08-04T08:54:07.674Z,7012
2017-08-04T08:54:48.214Z,13480
2017-08-04T08:55:28.753Z,6240
2017-08-04T08:56:09.293Z,7732
2017-08-04T08:56:49.830Z,6636
2017-08-04T08:57:30.363Z,5632
2017-08-04T08:58:10.912Z,5844
2017-08-04T08:58:51.461Z,6324
2017-08-04T08:59:32.002Z,5796
2017-08-04T09:00:12.553Z,4904
2017-08-04T09:00:53.100Z,4988
2017-08-04T09:01:33.642Z,5044
2017-08-04T09:02:14.181Z,4976
2017-08-04T09:02:54.719Z,5048
2017-08-04T09:03:35.299Z,4572
2017-08-04T09:04:15.841Z,4948
2017-08-04T09:04:56.383Z,6320
2017-08-04T09:05:36.925Z,7960
2017-08-04T09:06:17.462Z,9860
2017-08-04T09:06:57.995Z,12696
2017-08-04T09:07:38.527Z,14780
2017-08-04T09:08:19.070Z,71776
2017-08-04T09:08:59.610Z,19968
2017-08-04T09:09:40.142Z,12220
2017-08-04T09:10:20.688Z,12064
2017-08-04T09:11:01.228Z,12688
2017-08-04T09:11:41.768Z,13440
2017-08-04T09:12:22.307Z,15504
2017-08-04T09:13:02.869Z,16696
2017-08-04T09:13:43.413Z,18016
2017-08-04T09:14:23.955Z,22432
2017-08-04T09:15:04.491Z,27040
2017-08-04T09:15:45.036Z,19360
2017-08-04T09:16:25.580Z,17664
2017-08-04T09:17:06.125Z,29280
2017-08-04T09:17:46.665Z,19424
2017-08-04T09:18:27.211Z,22592
2017-08-04T09:19:07.761Z,18848
2017-08-04T09:19:48.300Z,18624
2017-08-04T09:20:28.829Z,18400
2017-08-04T09:21:09.378Z,17984
2017-08-04T09:21:49.929Z,18304
2017-08-04T09:22:30.459Z,17536
2017-08-04T09:23:10.996Z,16044
2017-08-04T09:23:51.538Z,16280
2017-08-04T09:24:32.074Z,17952
2017-08-04T09:25:12.625Z,21312
2017-08-04T09:25:53.166Z,18432
2017-08-04T09:26:33.705Z,20832